createdAt,value
2018-01-25T00:03:41.940Z,-1.41
2018-01-25T00:13:18.701Z,-1.40
2018-01-25T00:22:55.388Z,-1.44
2018-01-25T00:32:32.038Z,-1.53
2018-01-25T00:42:08.812Z,-1.37
2018-01-25T00:51:45.510Z,-1.45
2018-01-25T01:01:21.967Z,-1.55
2018-01-25T01:10:58.475Z,-1.55
2018-01-25T01:20:35.611Z,-1.58
2018-01-25T01:30:12.375Z,-1.66
2018-01-25T01:39:49.287Z,-1.55
2018-01-25T01:49:25.792Z,-1.68
2018-01-25T01:59:02.619Z,-1.76
2018-01-25T02:08:39.515Z,-1.80
2018-01-25T02:18:15.661Z,-1.58
2018-01-25T02:27:52.341Z,-1.70
2018-01-25T02:37:28.988Z,-1.77
2018-01-25T02:47:05.467Z,-1.81
2018-01-25T02:56:41.976Z,-1.77
2018-01-25T03:06:17.972Z,-1.89
2018-01-25T03:15:54.723Z,-1.86
2018-01-25T03:25:31.324Z,-1.89
2018-01-25T03:35:07.819Z,-1.83
2018-01-25T03:44:44.598Z,-1.89
2018-01-25T03:54:21.131Z,-1.89
2018-01-25T04:03:57.672Z,-1.94
2018-01-25T04:13:34.153Z,-1.88
2018-01-25T04:23:10.838Z,-2.04
2018-01-25T04:32:51.380Z,-2.07
2018-01-25T04:42:20.747Z,-2.09
2018-01-25T04:51:57.527Z,-2.20
2018-01-25T05:01:33.923Z,-2.13
2018-01-25T05:11:10.702Z,-2.32
2018-01-25T05:20:47.486Z,-2.28
2018-01-25T05:30:24.733Z,-2.25
2018-01-25T05:40:01.409Z,-2.27
2018-01-25T05:49:38.202Z,-2.25
2018-01-25T05:59:15.072Z,-2.30
2018-01-25T06:08:52.156Z,-2.42
2018-01-25T06:18:28.942Z,-2.17
2018-01-25T06:28:05.848Z,-2.25
2018-01-25T06:37:42.591Z,-2.20
2018-01-25T06:47:23.236Z,-2.17
2018-01-25T06:56:52.240Z,-2.12
2018-01-25T07:06:28.797Z,-1.91
2018-01-25T07:16:06.184Z,-1.81
2018-01-25T07:25:43.119Z,-1.48
2018-01-25T07:35:20.132Z,-1.40
2018-01-25T07:44:56.894Z,-1.11
2018-01-25T07:54:34.092Z,-0.72
2018-01-25T08:04:11.528Z,-0.35
2018-01-25T08:13:48.964Z,0.04
2018-01-25T08:23:26.151Z,0.24
2018-01-25T08:33:03.702Z,0.61
2018-01-25T08:42:41.167Z,1.11
2018-01-25T08:52:18.542Z,1.77
2018-01-25T09:01:56.027Z,2.19
2018-01-25T09:11:33.624Z,2.70
2018-01-25T09:21:11.336Z,3.44
2018-01-25T09:30:48.591Z,3.89
2018-01-25T09:40:26.099Z,4.40
2018-01-25T09:50:03.480Z,4.66
2018-01-25T09:59:40.803Z,5.06
2018-01-25T10:09:17.688Z,5.20
2018-01-25T10:18:54.666Z,5.54
2018-01-25T10:28:32.423Z,5.97
2018-01-25T10:38:09.360Z,6.18
2018-01-25T10:47:46.656Z,6.75
2018-01-25T10:57:27.816Z,6.99
2018-01-25T11:06:57.024Z,7.13
2018-01-25T11:16:33.984Z,9.37
2018-01-25T11:26:11.441Z,10.71
2018-01-25T11:35:52.867Z,10.63
2018-01-25T11:45:22.253Z,10.08
2018-01-25T11:54:58.128Z,10.28
2018-01-25T12:04:35.122Z,10.43
2018-01-25T12:14:12.977Z,10.81
2018-01-25T12:23:50.027Z,10.85
2018-01-25T12:33:25.304Z,10.58
2018-01-25T12:43:02.090Z,10.11
2018-01-25T12:52:40.331Z,10.41
2018-01-25T13:02:18.558Z,11.53
2018-01-25T13:11:52.391Z,10.65
2018-01-25T13:21:30.918Z,10.36
2018-01-25T13:31:05.352Z,10.19
2018-01-25T13:40:43.354Z,10.34
2018-01-25T13:50:21.228Z,11.21
2018-01-25T13:59:59.357Z,10.65
2018-01-25T14:09:35.158Z,10.33
2018-01-25T14:19:07.930Z,9.38
2018-01-25T14:28:43.410Z,8.68
2018-01-25T14:38:16.345Z,8.37
2018-01-25T14:47:55.980Z,8.11
2018-01-25T14:57:32.175Z,7.94
2018-01-25T15:07:08.529Z,7.68
2018-01-25T15:16:48.149Z,7.44
2018-01-25T15:26:16.295Z,7.06
2018-01-25T15:35:51.663Z,5.99
2018-01-25T15:45:26.800Z,5.11
2018-01-25T15:55:01.742Z,4.55
2018-01-25T16:04:36.829Z,3.97
2018-01-25T16:14:12.074Z,3.48
2018-01-25T16:23:48.155Z,3.19
2018-01-25T16:33:24.406Z,3.14
2018-01-25T16:43:00.630Z,2.84
2018-01-25T16:52:36.956Z,2.59
2018-01-25T17:02:13.099Z,2.32
2018-01-25T17:11:49.376Z,2.20
2018-01-25T17:21:26.058Z,2.20
2018-01-25T17:31:02.012Z,2.09
2018-01-25T17:40:38.576Z,1.84
2018-01-25T17:50:14.665Z,1.65
2018-01-25T17:59:51.393Z,1.48
2018-01-25T18:09:27.771Z,1.47
2018-01-25T18:19:04.081Z,1.38
2018-01-25T18:28:40.184Z,1.20
2018-01-25T18:38:16.391Z,1.11
2018-01-25T18:47:52.570Z,0.87
2018-01-25T18:57:28.505Z,0.92
2018-01-25T19:07:08.751Z,1.02
2018-01-25T19:16:37.495Z,0.61
2018-01-25T19:26:12.640Z,0.35
2018-01-25T19:35:53.282Z,0.28
2018-01-25T19:45:29.746Z,0.17
2018-01-25T19:55:05.891Z,0.16
2018-01-25T20:04:42.207Z,-0.10
2018-01-25T20:14:18.359Z,-0.12
2018-01-25T20:23:54.868Z,-0.20
2018-01-25T20:33:31.108Z,-0.38
2018-01-25T20:43:08.127Z,-0.29
2018-01-25T20:52:44.375Z,-0.46
2018-01-25T21:02:21.270Z,-0.40
2018-01-25T21:11:58.025Z,-0.50
2018-01-25T21:21:34.705Z,-0.47
2018-01-25T21:31:11.409Z,-0.58
2018-01-25T21:40:47.517Z,-0.51
2018-01-25T21:50:24.614Z,-0.41
2018-01-25T22:00:01.150Z,-0.69
2018-01-25T22:09:38.214Z,-0.64
2018-01-25T22:19:14.728Z,-0.56
2018-01-25T22:28:51.849Z,-0.53
2018-01-25T22:38:28.408Z,-0.46
2018-01-25T22:48:05.103Z,-0.43
2018-01-25T22:57:41.582Z,-0.44
2018-01-25T23:07:17.918Z,-0.50
2018-01-25T23:16:54.367Z,-0.47
2018-01-25T23:26:31.151Z,-0.47
2018-01-25T23:36:11.713Z,-0.65
2018-01-25T23:45:46.115Z,-0.65
2018-01-25T23:55:12.771Z,-0.86
